createdAt,value
2018-09-26T00:00:07.186Z,10.6
2018-09-26T00:01:08.575Z,10.6
2018-09-26T00:02:09.962Z,10.5
2018-09-26T00:03:11.347Z,10.5
2018-09-26T00:04:12.734Z,10.5
2018-09-26T00:05:14.123Z,10.5
2018-09-26T00:06:15.508Z,10.5
2018-09-26T00:07:16.899Z,10.5
2018-09-26T00:08:18.288Z,10.5
2018-09-26T00:09:19.676Z,10.5
2018-09-26T00:10:21.074Z,10.5
2018-09-26T00:11:22.457Z,10.5
2018-09-26T00:12:23.844Z,10.4
2018-09-26T00:13:25.230Z,10.5
2018-09-26T00:14:26.629Z,10.5
2018-09-26T00:15:28.015Z,10.5
2018-09-26T00:16:29.402Z,10.5
2018-09-26T00:17:30.800Z,10.6
2018-09-26T00:18:32.185Z,10.6
2018-09-26T00:19:33.582Z,10.6
2018-09-26T00:20:34.961Z,10.7
2018-09-26T00:21:36.350Z,10.6
2018-09-26T00:22:37.732Z,10.6
2018-09-26T00:23:39.133Z,10.6
2018-09-26T00:24:40.520Z,10.7
2018-09-26T00:25:41.911Z,10.6
2018-09-26T00:26:43.297Z,10.6
2018-09-26T00:27:44.682Z,10.6
2018-09-26T00:28:46.074Z,10.6
2018-09-26T00:29:47.460Z,10.6
2018-09-26T00:30:48.905Z,10.6
2018-09-26T00:31:50.303Z,10.6
2018-09-26T00:32:51.697Z,10.6
2018-09-26T00:33:53.089Z,10.5
2018-09-26T00:34:54.476Z,10.5
2018-09-26T00:35:55.895Z,10.6
2018-09-26T00:36:57.254Z,10.6
2018-09-26T00:37:58.637Z,10.7
2018-09-26T00:39:00.024Z,10.7
2018-09-26T00:40:01.411Z,10.6
2018-09-26T00:41:02.800Z,10.6
2018-09-26T00:42:04.186Z,10.6
2018-09-26T00:43:05.577Z,10.6
2018-09-26T00:44:06.964Z,10.5
2018-09-26T00:45:08.351Z,10.6
2018-09-26T00:46:09.736Z,10.5
2018-09-26T00:47:11.121Z,10.5
2018-09-26T00:48:12.509Z,10.5
2018-09-26T00:49:13.899Z,10.4
2018-09-26T00:50:15.288Z,10.5
2018-09-26T00:51:16.678Z,10.4
2018-09-26T00:52:18.065Z,10.4
2018-09-26T00:53:19.452Z,10.4
2018-09-26T00:54:20.838Z,10.4
2018-09-26T00:55:22.225Z,10.3
2018-09-26T00:56:23.614Z,10.3
2018-09-26T00:57:25.001Z,10.2
2018-09-26T00:58:26.387Z,10.3
2018-09-26T00:59:27.776Z,10.2
2018-09-26T01:00:29.161Z,10.2
2018-09-26T01:01:30.552Z,10.2
2018-09-26T01:02:32.035Z,10.2
2018-09-26T01:03:33.420Z,10.2
2018-09-26T01:04:34.819Z,10.2
2018-09-26T01:05:36.199Z,10.1
2018-09-26T01:06:37.586Z,10.1
2018-09-26T01:07:38.973Z,10.1
2018-09-26T01:08:40.368Z,10.1
2018-09-26T01:09:41.749Z,10.1
2018-09-26T01:10:43.135Z,10.1
2018-09-26T01:11:44.518Z,10.0
2018-09-26T01:12:45.909Z,10.0
2018-09-26T01:13:47.300Z,10.0
2018-09-26T01:14:48.686Z,9.9
2018-09-26T01:15:50.071Z,9.9
2018-09-26T01:16:51.460Z,9.9
2018-09-26T01:17:52.843Z,9.9
2018-09-26T01:18:54.231Z,10.0
2018-09-26T01:19:55.618Z,9.9
2018-09-26T01:20:57.067Z,9.9
2018-09-26T01:21:58.450Z,9.9
2018-09-26T01:22:59.832Z,9.9
2018-09-26T01:24:01.219Z,9.9
2018-09-26T01:25:02.606Z,9.8
2018-09-26T01:26:03.990Z,9.8
2018-09-26T01:27:05.374Z,9.7
2018-09-26T01:28:06.753Z,9.7
2018-09-26T01:29:08.147Z,9.8
2018-09-26T01:30:09.525Z,9.8
2018-09-26T01:31:10.923Z,9.7
2018-09-26T01:32:12.308Z,9.7
2018-09-26T01:33:13.701Z,9.7
2018-09-26T01:34:15.081Z,9.7
2018-09-26T01:35:16.467Z,9.6
2018-09-26T01:36:17.850Z,9.7
2018-09-26T01:37:19.241Z,9.6
2018-09-26T01:38:20.624Z,9.5
2018-09-26T01:39:22.015Z,9.5
2018-09-26T01:40:23.400Z,9.6
2018-09-26T01:41:24.792Z,9.6
2018-09-26T01:42:26.166Z,9.5
2018-09-26T01:43:27.550Z,9.6
2018-09-26T01:44:28.936Z,9.6
2018-09-26T01:45:30.324Z,9.6
2018-09-26T01:46:31.710Z,9.6
2018-09-26T01:47:33.107Z,9.6
2018-09-26T01:48:34.486Z,9.6
2018-09-26T01:49:35.868Z,9.5
2018-09-26T01:50:37.252Z,9.4
2018-09-26T01:51:38.641Z,9.5
2018-09-26T01:52:40.025Z,9.5
2018-09-26T01:53:41.409Z,9.4
2018-09-26T01:54:42.802Z,9.4
2018-09-26T01:55:44.188Z,9.4
2018-09-26T01:56:45.575Z,9.4
2018-09-26T01:57:46.959Z,9.4
2018-09-26T01:58:48.345Z,9.5
2018-09-26T01:59:49.729Z,9.4
2018-09-26T02:00:51.115Z,9.4
2018-09-26T02:01:52.500Z,9.3
2018-09-26T02:02:53.887Z,9.3
2018-09-26T02:03:55.272Z,9.3
2018-09-26T02:04:56.657Z,9.3
2018-09-26T02:05:58.045Z,9.3
2018-09-26T02:06:59.433Z,9.3
2018-09-26T02:08:00.816Z,9.3
2018-09-26T02:09:02.203Z,9.3
2018-09-26T02:10:03.596Z,9.2
2018-09-26T02:11:04.985Z,9.2
2018-09-26T02:12:06.374Z,9.2
2018-09-26T02:13:07.760Z,9.2
2018-09-26T02:14:09.139Z,9.2
2018-09-26T02:15:10.523Z,9.2
2018-09-26T02:16:11.910Z,9.3
2018-09-26T02:17:13.297Z,9.2
2018-09-26T02:18:14.679Z,9.1
2018-09-26T02:19:16.067Z,9.3
2018-09-26T02:20:17.453Z,9.2
2018-09-26T02:21:18.851Z,9.2
2018-09-26T02:22:20.238Z,9.2
2018-09-26T02:23:21.620Z,9.2
2018-09-26T02:24:23.000Z,9.1
2018-09-26T02:25:24.388Z,9.1
2018-09-26T02:26:25.770Z,9.1
2018-09-26T02:27:27.162Z,9.1
2018-09-26T02:28:28.551Z,9.2
2018-09-26T02:29:29.935Z,9.2
2018-09-26T02:30:31.322Z,9.1
2018-09-26T02:31:32.710Z,9.1
2018-09-26T02:32:34.094Z,9.1
2018-09-26T02:33:35.479Z,9.1
2018-09-26T02:34:36.971Z,9.1
2018-09-26T02:35:38.328Z,9.1
2018-09-26T02:36:39.719Z,9.1
2018-09-26T02:37:41.100Z,9.2
2018-09-26T02:38:42.498Z,9.1
2018-09-26T02:39:43.877Z,9.2
2018-09-26T02:40:45.263Z,9.1
2018-09-26T02:41:46.645Z,9.1
2018-09-26T02:42:48.032Z,9.1
2018-09-26T02:43:49.416Z,9.1
2018-09-26T02:44:50.802Z,9.2
2018-09-26T02:45:52.187Z,9.1
2018-09-26T02:46:53.572Z,9.1
2018-09-26T02:47:54.953Z,9.2
2018-09-26T02:48:56.336Z,9.2
2018-09-26T02:49:57.727Z,9.1
2018-09-26T02:50:59.115Z,9.1
2018-09-26T02:52:00.502Z,9.1
2018-09-26T02:53:01.880Z,9.1
2018-09-26T02:54:03.261Z,9.1
2018-09-26T02:55:04.646Z,9.1
2018-09-26T02:56:06.031Z,9.1
2018-09-26T02:57:07.425Z,9.1
2018-09-26T02:58:08.810Z,9.2
2018-09-26T02:59:10.199Z,9.2
2018-09-26T03:00:11.582Z,9.2
2018-09-26T03:01:12.965Z,9.2
2018-09-26T03:02:14.352Z,9.2
2018-09-26T03:03:15.954Z,9.2
2018-09-26T03:04:17.462Z,9.3
2018-09-26T03:05:18.881Z,9.2
2018-09-26T03:06:20.243Z,9.1
2018-09-26T03:07:21.628Z,9.2
2018-09-26T03:08:23.008Z,9.1
2018-09-26T03:09:24.401Z,9.2
2018-09-26T03:10:25.795Z,9.2
2018-09-26T03:11:27.181Z,9.2
2018-09-26T03:12:28.566Z,9.2
2018-09-26T03:13:29.955Z,9.2
2018-09-26T03:14:31.340Z,9.2
2018-09-26T03:15:32.721Z,9.2
2018-09-26T03:16:34.105Z,9.2
2018-09-26T03:17:35.564Z,9.1
2018-09-26T03:18:36.940Z,9.2
2018-09-26T03:19:38.263Z,9.2
2018-09-26T03:20:39.685Z,9.1
2018-09-26T03:21:41.069Z,9.1
2018-09-26T03:22:42.453Z,9.1
2018-09-26T03:23:43.842Z,9.1
2018-09-26T03:24:45.234Z,9.1
2018-09-26T03:25:46.613Z,9.1
2018-09-26T03:26:48.002Z,9.2
2018-09-26T03:27:49.388Z,9.1
2018-09-26T03:28:50.773Z,9.1
2018-09-26T03:29:52.159Z,9.1
2018-09-26T03:30:53.545Z,9.2
2018-09-26T03:31:54.934Z,9.1
2018-09-26T03:32:56.311Z,9.0
2018-09-26T03:33:57.698Z,8.9
2018-09-26T03:34:59.083Z,9.0
2018-09-26T03:36:00.492Z,8.9
2018-09-26T03:37:01.891Z,9.0
2018-09-26T03:38:03.244Z,9.0
2018-09-26T03:39:04.629Z,8.9
2018-09-26T03:40:06.016Z,9.0
2018-09-26T03:41:07.407Z,8.9
2018-09-26T03:42:08.794Z,9.0
2018-09-26T03:43:10.182Z,8.9
2018-09-26T03:44:11.568Z,8.8
2018-09-26T03:45:12.951Z,8.8
2018-09-26T03:46:14.338Z,8.8
2018-09-26T03:47:15.720Z,8.8
2018-09-26T03:48:17.105Z,8.8
2018-09-26T03:49:18.496Z,8.8
2018-09-26T03:50:19.877Z,8.8
2018-09-26T03:51:21.270Z,8.7
2018-09-26T03:52:22.647Z,8.7
2018-09-26T03:53:24.033Z,8.7
2018-09-26T03:54:25.504Z,8.8
2018-09-26T03:55:26.902Z,8.8
2018-09-26T03:56:28.290Z,8.6
2018-09-26T03:57:29.669Z,8.7
2018-09-26T03:58:31.057Z,8.6
2018-09-26T03:59:32.444Z,8.6
2018-09-26T04:00:33.836Z,8.6
2018-09-26T04:01:35.230Z,8.7
2018-09-26T04:02:36.615Z,8.6
2018-09-26T04:03:38.000Z,8.6
2018-09-26T04:04:39.383Z,8.7
2018-09-26T04:05:40.763Z,8.7
2018-09-26T04:06:42.149Z,8.6
2018-09-26T04:07:43.537Z,8.6
2018-09-26T04:08:44.921Z,8.6
2018-09-26T04:09:46.306Z,8.6
2018-09-26T04:10:47.702Z,8.4
2018-09-26T04:11:49.076Z,8.5
2018-09-26T04:12:50.558Z,8.5
2018-09-26T04:13:51.850Z,8.3
2018-09-26T04:14:53.235Z,8.4
2018-09-26T04:15:54.621Z,8.4
2018-09-26T04:16:56.011Z,8.4
2018-09-26T04:17:57.392Z,8.4
2018-09-26T04:18:58.776Z,8.4
2018-09-26T04:20:00.165Z,8.3
2018-09-26T04:21:01.577Z,8.4
2018-09-26T04:22:02.928Z,8.4
2018-09-26T04:23:04.314Z,8.4
2018-09-26T04:24:05.702Z,8.4
2018-09-26T04:25:07.093Z,8.4
2018-09-26T04:26:08.511Z,8.3
2018-09-26T04:27:09.919Z,8.3
2018-09-26T04:28:11.309Z,8.5
2018-09-26T04:29:12.749Z,8.5
2018-09-26T04:30:14.177Z,8.5
2018-09-26T04:31:15.538Z,8.4
2018-09-26T04:32:16.926Z,8.4
2018-09-26T04:33:18.525Z,8.5
2018-09-26T04:34:19.697Z,8.5
2018-09-26T04:35:21.078Z,8.4
2018-09-26T04:36:22.466Z,8.5
2018-09-26T04:37:23.939Z,8.5
2018-09-26T04:38:25.370Z,8.4
2018-09-26T04:39:26.718Z,8.4
2018-09-26T04:40:28.113Z,8.4
2018-09-26T04:41:29.496Z,8.5
2018-09-26T04:42:30.881Z,8.5
2018-09-26T04:43:32.314Z,8.5
2018-09-26T04:44:33.780Z,8.5
2018-09-26T04:45:35.164Z,8.5
2018-09-26T04:46:36.545Z,8.5
2018-09-26T04:47:37.931Z,8.5
2018-09-26T04:48:39.312Z,8.5
2018-09-26T04:49:40.697Z,8.5
2018-09-26T04:50:42.121Z,8.5
2018-09-26T04:51:43.583Z,8.5
2018-09-26T04:52:44.974Z,8.6
2018-09-26T04:53:46.360Z,8.5
2018-09-26T04:54:47.744Z,8.5
2018-09-26T04:55:49.128Z,8.5
2018-09-26T04:56:50.511Z,8.6
2018-09-26T04:57:51.924Z,8.5
2018-09-26T04:58:53.289Z,8.5
2018-09-26T04:59:54.667Z,8.5
2018-09-26T05:00:56.061Z,8.5
2018-09-26T05:01:57.445Z,8.5
2018-09-26T05:02:58.832Z,8.5
2018-09-26T05:04:00.217Z,8.5
2018-09-26T05:05:01.606Z,8.5
2018-09-26T05:06:02.987Z,8.5
2018-09-26T05:07:04.379Z,8.4
2018-09-26T05:08:05.769Z,8.5
2018-09-26T05:09:07.152Z,8.4
2018-09-26T05:10:08.537Z,8.5
2018-09-26T05:11:09.923Z,8.4
2018-09-26T05:12:11.309Z,8.4
2018-09-26T05:13:12.698Z,8.4
2018-09-26T05:14:14.100Z,8.4
2018-09-26T05:15:15.487Z,8.4
2018-09-26T05:16:16.871Z,8.4
2018-09-26T05:17:18.256Z,8.4
2018-09-26T05:18:19.640Z,8.3
2018-09-26T05:19:21.036Z,8.4
2018-09-26T05:20:22.428Z,8.5
2018-09-26T05:21:23.814Z,8.5
2018-09-26T05:22:25.203Z,8.3
2018-09-26T05:23:26.590Z,8.3
2018-09-26T05:24:27.974Z,8.3
2018-09-26T05:25:29.360Z,8.3
2018-09-26T05:26:30.746Z,8.5
2018-09-26T05:27:32.133Z,8.3
2018-09-26T05:28:33.520Z,8.4
2018-09-26T05:29:34.910Z,8.4
2018-09-26T05:30:36.292Z,8.3
2018-09-26T05:31:37.676Z,8.4
2018-09-26T05:32:39.072Z,8.3
2018-09-26T05:33:40.464Z,8.4
2018-09-26T05:34:41.852Z,8.3
2018-09-26T05:35:43.288Z,8.3
2018-09-26T05:36:44.720Z,8.5
2018-09-26T05:37:46.110Z,8.4
2018-09-26T05:38:47.504Z,8.4
2018-09-26T05:39:48.914Z,8.4
2018-09-26T05:40:50.302Z,8.4
2018-09-26T05:41:51.730Z,8.5
2018-09-26T05:42:53.081Z,8.5
2018-09-26T05:43:54.471Z,8.3
2018-09-26T05:44:55.863Z,8.3
2018-09-26T05:45:57.247Z,8.4
2018-09-26T05:46:58.636Z,8.3
2018-09-26T05:48:00.037Z,8.3
2018-09-26T05:49:01.424Z,8.3
2018-09-26T05:50:02.948Z,8.3
2018-09-26T05:51:04.444Z,8.3
2018-09-26T05:52:06.252Z,8.3
2018-09-26T05:53:07.567Z,8.2
2018-09-26T05:54:08.959Z,8.3
2018-09-26T05:55:10.347Z,8.3
2018-09-26T05:56:11.742Z,8.2
2018-09-26T05:57:13.131Z,8.3
2018-09-26T05:58:14.527Z,8.3
2018-09-26T05:59:15.941Z,8.3
2018-09-26T06:00:17.332Z,8.3
2018-09-26T06:01:18.720Z,8.4
2018-09-26T06:02:20.105Z,8.3
2018-09-26T06:03:21.496Z,8.4
2018-09-26T06:04:22.881Z,8.4
2018-09-26T06:05:24.321Z,8.4
2018-09-26T06:06:25.653Z,8.4
2018-09-26T06:07:27.037Z,8.3
2018-09-26T06:08:28.433Z,8.5
2018-09-26T06:09:29.815Z,8.5
2018-09-26T06:10:31.207Z,8.6
2018-09-26T06:11:32.594Z,8.6
2018-09-26T06:12:33.983Z,8.6
2018-09-26T06:13:35.372Z,8.7
2018-09-26T06:14:36.758Z,8.6
2018-09-26T06:15:38.153Z,8.6
2018-09-26T06:16:39.543Z,8.7
2018-09-26T06:17:40.937Z,8.7
2018-09-26T06:18:42.325Z,8.7
2018-09-26T06:19:43.717Z,8.8
2018-09-26T06:20:45.127Z,8.8
2018-09-26T06:21:46.501Z,8.8
2018-09-26T06:22:47.888Z,8.8
2018-09-26T06:23:49.275Z,8.8
2018-09-26T06:24:50.707Z,8.9
2018-09-26T06:25:52.195Z,9.0
2018-09-26T06:26:53.594Z,8.9
2018-09-26T06:27:54.975Z,9.0
2018-09-26T06:28:56.379Z,9.0
2018-09-26T06:29:57.771Z,9.0
2018-09-26T06:30:59.157Z,9.0
2018-09-26T06:32:00.551Z,9.0
2018-09-26T06:33:01.962Z,9.1
2018-09-26T06:34:03.351Z,9.1
2018-09-26T06:35:04.784Z,9.2
2018-09-26T06:36:06.126Z,9.1
2018-09-26T06:37:07.522Z,9.1
2018-09-26T06:38:08.903Z,9.2
2018-09-26T06:39:10.337Z,9.2
2018-09-26T06:40:11.723Z,9.1
2018-09-26T06:41:13.115Z,9.2
2018-09-26T06:42:14.500Z,9.3
2018-09-26T06:43:15.888Z,9.4
2018-09-26T06:44:17.280Z,9.5
2018-09-26T06:45:18.729Z,9.4
2018-09-26T06:46:20.112Z,9.4
2018-09-26T06:47:21.550Z,9.5
2018-09-26T06:48:22.916Z,9.6
2018-09-26T06:49:24.303Z,9.5
2018-09-26T06:50:25.690Z,9.6
2018-09-26T06:51:27.077Z,9.7
2018-09-26T06:52:28.473Z,9.7
2018-09-26T06:53:29.870Z,9.8
2018-09-26T06:54:31.264Z,9.8
2018-09-26T06:55:32.656Z,9.8
2018-09-26T06:56:34.044Z,9.9
2018-09-26T06:57:35.474Z,9.9
2018-09-26T06:58:36.902Z,10.0
2018-09-26T06:59:38.296Z,9.9
2018-09-26T07:00:39.692Z,10.1
2018-09-26T07:01:41.098Z,10.2
2018-09-26T07:02:42.488Z,10.2
2018-09-26T07:03:43.880Z,10.2
2018-09-26T07:04:45.281Z,10.3
2018-09-26T07:05:46.671Z,10.3
2018-09-26T07:06:48.070Z,10.3
2018-09-26T07:07:50.102Z,10.3
2018-09-26T07:08:50.826Z,10.4
2018-09-26T07:09:52.216Z,10.4
2018-09-26T07:10:53.605Z,10.5
2018-09-26T07:11:55.000Z,10.5
2018-09-26T07:12:56.385Z,10.5
2018-09-26T07:13:57.778Z,10.6
2018-09-26T07:14:59.172Z,10.6
2018-09-26T07:16:00.597Z,10.7
2018-09-26T07:17:02.003Z,10.7
2018-09-26T07:18:03.388Z,10.7
2018-09-26T07:19:04.784Z,10.8
2018-09-26T07:20:06.179Z,10.8
2018-09-26T07:21:07.610Z,10.8
2018-09-26T07:22:09.290Z,10.9
2018-09-26T07:23:10.633Z,10.9
2018-09-26T07:24:12.031Z,10.9
2018-09-26T07:25:13.416Z,11.0
2018-09-26T07:26:14.808Z,11.0
2018-09-26T07:27:16.761Z,11.0
2018-09-26T07:28:18.151Z,11.0
2018-09-26T07:29:19.545Z,11.0
2018-09-26T07:30:20.934Z,11.2
2018-09-26T07:31:22.351Z,11.2
2018-09-26T07:32:24.288Z,11.2
2018-09-26T07:33:25.675Z,11.1
2018-09-26T07:34:27.068Z,11.3
2018-09-26T07:35:28.561Z,11.3
2018-09-26T07:36:29.954Z,11.3
2018-09-26T07:37:31.350Z,11.4
2018-09-26T07:38:32.802Z,11.5
2018-09-26T07:39:34.132Z,11.5
2018-09-26T07:40:35.540Z,11.6
2018-09-26T07:41:36.932Z,11.6
2018-09-26T07:42:38.338Z,11.7
2018-09-26T07:43:39.727Z,11.6
2018-09-26T07:44:41.120Z,11.7
2018-09-26T07:45:42.536Z,11.8
2018-09-26T07:46:43.908Z,11.9
2018-09-26T07:47:45.327Z,11.9
2018-09-26T07:48:46.719Z,12.0
2018-09-26T07:49:48.112Z,12.0
2018-09-26T07:50:49.503Z,12.1
2018-09-26T07:51:51.249Z,12.1
2018-09-26T07:52:52.667Z,12.1
2018-09-26T07:53:54.591Z,12.2
2018-09-26T07:54:56.020Z,12.2
2018-09-26T07:55:57.792Z,12.2
2018-09-26T07:56:59.028Z,12.4
2018-09-26T07:58:00.424Z,12.5
2018-09-26T07:59:01.900Z,12.4
2018-09-26T08:00:03.302Z,12.6
2018-09-26T08:01:04.674Z,12.7
2018-09-26T08:02:06.153Z,12.7
2018-09-26T08:03:07.848Z,12.7
2018-09-26T08:04:09.241Z,12.8
2018-09-26T08:05:10.667Z,12.8
2018-09-26T08:06:12.060Z,12.9
2018-09-26T08:07:13.495Z,12.9
2018-09-26T08:08:14.898Z,13.0
2018-09-26T08:09:16.291Z,13.1
2018-09-26T08:10:17.737Z,13.2
2018-09-26T08:11:19.160Z,13.2
2018-09-26T08:12:20.531Z,13.4
2018-09-26T08:13:21.923Z,13.3
2018-09-26T08:14:23.326Z,13.4
2018-09-26T08:15:24.717Z,13.4
2018-09-26T08:16:26.113Z,13.6
2018-09-26T08:17:27.510Z,13.6
2018-09-26T08:18:28.937Z,13.7
2018-09-26T08:19:30.314Z,13.8
2018-09-26T08:20:31.712Z,13.9
2018-09-26T08:21:33.113Z,13.9
2018-09-26T08:22:35.259Z,14.0
2018-09-26T08:23:36.666Z,14.0
2018-09-26T08:24:38.119Z,14.0
2018-09-26T08:25:39.511Z,14.1
2018-09-26T08:26:40.938Z,14.1
2018-09-26T08:27:42.336Z,14.3
2018-09-26T08:28:43.732Z,14.3
2018-09-26T08:29:45.264Z,14.4
2018-09-26T08:30:46.625Z,14.6
2018-09-26T08:31:48.026Z,14.7
2018-09-26T08:32:49.454Z,14.7
2018-09-26T08:33:50.853Z,14.8
2018-09-26T08:34:52.251Z,14.9
2018-09-26T08:35:53.651Z,15.0
2018-09-26T08:36:55.049Z,15.1
2018-09-26T08:37:56.452Z,15.1
2018-09-26T08:38:57.867Z,15.1
2018-09-26T08:39:59.260Z,15.2
2018-09-26T08:41:00.661Z,15.3
2018-09-26T08:42:02.076Z,15.3
2018-09-26T08:43:03.481Z,15.3
2018-09-26T08:44:04.916Z,15.4
2018-09-26T08:45:06.289Z,15.3
2018-09-26T08:46:07.687Z,15.4
2018-09-26T08:47:09.617Z,15.3
2018-09-26T08:48:10.473Z,15.4
2018-09-26T08:49:11.957Z,15.4
2018-09-26T08:50:13.354Z,15.4
2018-09-26T08:51:14.758Z,15.3
2018-09-26T08:52:16.159Z,15.3
2018-09-26T08:53:17.559Z,15.3
2018-09-26T08:54:18.960Z,15.2
2018-09-26T08:55:20.357Z,15.3
2018-09-26T08:56:21.757Z,15.4
2018-09-26T08:57:23.199Z,15.4
2018-09-26T08:58:24.598Z,15.5
2018-09-26T08:59:25.994Z,15.6
2018-09-26T09:00:27.394Z,15.8
2018-09-26T09:01:28.785Z,15.7
2018-09-26T09:02:30.183Z,15.8
2018-09-26T09:03:31.576Z,16.0
2018-09-26T09:04:33.002Z,16.2
2018-09-26T09:05:34.397Z,16.2
2018-09-26T09:06:35.792Z,16.3
2018-09-26T09:07:37.189Z,16.4
2018-09-26T09:08:38.586Z,16.6
2018-09-26T09:09:39.989Z,16.7
2018-09-26T09:10:41.401Z,16.9
2018-09-26T09:11:42.812Z,17.3
2018-09-26T09:12:44.233Z,17.7
2018-09-26T09:13:45.633Z,18.2
2018-09-26T09:14:47.186Z,18.6
2018-09-26T09:15:48.463Z,19.1
2018-09-26T09:16:50.540Z,19.4
2018-09-26T09:17:51.990Z,20.0
2018-09-26T09:18:53.393Z,20.4
2018-09-26T09:19:54.797Z,20.8
2018-09-26T09:20:56.219Z,21.0
2018-09-26T09:21:57.634Z,21.2
2018-09-26T09:22:59.042Z,21.4
2018-09-26T09:24:00.576Z,21.7
2018-09-26T09:25:01.987Z,21.9
2018-09-26T09:26:03.392Z,22.2
2018-09-26T09:27:04.832Z,22.6
2018-09-26T09:28:06.220Z,22.8
2018-09-26T09:29:07.622Z,23.1
2018-09-26T09:30:09.022Z,23.3
2018-09-26T09:31:10.431Z,23.4
2018-09-26T09:32:11.888Z,23.8
2018-09-26T09:33:13.249Z,23.8
2018-09-26T09:34:14.648Z,24.0
2018-09-26T09:35:16.049Z,24.1
2018-09-26T09:36:17.574Z,24.2
2018-09-26T09:37:18.996Z,24.3
2018-09-26T09:38:20.492Z,24.7
2018-09-26T09:39:21.768Z,24.9
2018-09-26T09:40:23.199Z,25.1
2018-09-26T09:41:24.605Z,25.3
2018-09-26T09:42:26.003Z,25.5
2018-09-26T09:43:27.401Z,25.7
2018-09-26T09:44:28.862Z,25.9
2018-09-26T09:45:30.207Z,25.8
2018-09-26T09:46:31.638Z,25.6
2018-09-26T09:47:33.088Z,25.6
2018-09-26T09:48:34.497Z,25.6
2018-09-26T09:49:35.902Z,25.8
2018-09-26T09:50:37.641Z,26.0
2018-09-26T09:51:39.165Z,25.9
2018-09-26T09:52:40.493Z,25.6
2018-09-26T09:53:41.900Z,25.7
2018-09-26T09:54:43.339Z,26.0
2018-09-26T09:55:44.710Z,26.3
2018-09-26T09:56:46.120Z,26.5
2018-09-26T09:57:47.521Z,26.6
2018-09-26T09:58:48.926Z,26.7
2018-09-26T09:59:50.356Z,27.0
2018-09-26T10:00:51.772Z,27.2
2018-09-26T10:01:53.182Z,27.6
2018-09-26T10:02:54.683Z,27.8
2018-09-26T10:03:55.997Z,28.0
2018-09-26T10:04:57.402Z,28.3
2018-09-26T10:05:58.810Z,28.4
2018-09-26T10:07:00.213Z,28.5
2018-09-26T10:08:01.622Z,28.9
2018-09-26T10:09:03.111Z,29.1
2018-09-26T10:10:04.507Z,29.5
2018-09-26T10:11:05.911Z,29.8
2018-09-26T10:12:07.346Z,30.0
2018-09-26T10:13:08.752Z,30.3
2018-09-26T10:14:10.220Z,30.0
2018-09-26T10:15:11.582Z,30.0
2018-09-26T10:16:13.013Z,30.0
2018-09-26T10:17:14.420Z,30.0
2018-09-26T10:18:15.846Z,30.1
2018-09-26T10:19:17.248Z,30.2
2018-09-26T10:20:18.659Z,30.2
2018-09-26T10:21:20.067Z,30.3
2018-09-26T10:22:21.492Z,30.4
2018-09-26T10:23:22.912Z,30.5
2018-09-26T10:24:24.320Z,30.4
2018-09-26T10:25:25.723Z,30.8
2018-09-26T10:26:27.246Z,31.0
2018-09-26T10:27:28.594Z,31.3
2018-09-26T10:28:30.002Z,31.6
2018-09-26T10:29:31.409Z,31.9
2018-09-26T10:30:33.477Z,32.1
2018-09-26T10:31:34.880Z,32.3
2018-09-26T10:32:36.341Z,32.5
2018-09-26T10:33:37.748Z,32.3
2018-09-26T10:34:39.166Z,32.2
2018-09-26T10:35:41.363Z,32.3
2018-09-26T10:36:42.768Z,32.0
2018-09-26T10:37:44.174Z,31.6
2018-09-26T10:38:45.574Z,31.7
2018-09-26T10:39:46.981Z,31.1
2018-09-26T10:40:48.441Z,31.1
2018-09-26T10:41:49.787Z,31.1
2018-09-26T10:42:51.197Z,31.0
2018-09-26T10:43:52.601Z,30.7
2018-09-26T10:44:54.009Z,30.3
2018-09-26T10:45:55.412Z,29.7
2018-09-26T10:46:56.964Z,29.2
2018-09-26T10:47:58.364Z,28.9
2018-09-26T10:48:59.770Z,28.7
2018-09-26T10:50:01.199Z,28.6
2018-09-26T10:51:02.647Z,28.3
2018-09-26T10:52:04.049Z,27.9
2018-09-26T10:53:05.456Z,27.8
2018-09-26T10:54:06.864Z,27.5
2018-09-26T10:55:08.306Z,27.6
2018-09-26T10:56:09.773Z,27.3
2018-09-26T10:57:11.161Z,27.2
2018-09-26T10:58:12.568Z,26.8
2018-09-26T10:59:13.999Z,26.6
2018-09-26T11:00:15.396Z,26.5
2018-09-26T11:01:16.795Z,26.3
2018-09-26T11:02:18.264Z,26.2
2018-09-26T11:03:19.686Z,26.3
2018-09-26T11:04:21.109Z,26.3
2018-09-26T11:05:22.507Z,26.3
2018-09-26T11:06:24.100Z,26.2
2018-09-26T11:07:25.580Z,26.0
2018-09-26T11:08:26.979Z,26.1
2018-09-26T11:09:28.381Z,26.1
2018-09-26T11:10:29.787Z,26.1
2018-09-26T11:11:31.190Z,26.0
2018-09-26T11:12:32.617Z,26.1
2018-09-26T11:13:33.991Z,26.0
2018-09-26T11:14:35.391Z,25.8
2018-09-26T11:15:36.803Z,25.7
2018-09-26T11:16:38.205Z,25.6
2018-09-26T11:17:39.616Z,25.4
2018-09-26T11:18:41.032Z,25.3
2018-09-26T11:19:42.425Z,25.1
2018-09-26T11:20:43.828Z,25.0
2018-09-26T11:21:45.238Z,25.0
2018-09-26T11:22:46.643Z,25.1
2018-09-26T11:23:48.050Z,25.2
2018-09-26T11:24:49.460Z,25.3
2018-09-26T11:25:50.914Z,25.5
2018-09-26T11:26:52.278Z,25.4
2018-09-26T11:27:53.686Z,25.3
2018-09-26T11:28:55.087Z,25.2
2018-09-26T11:29:56.492Z,25.1
2018-09-26T11:30:57.895Z,25.0
2018-09-26T11:31:59.357Z,24.8
2018-09-26T11:33:00.763Z,24.8
2018-09-26T11:34:02.168Z,24.8
2018-09-26T11:35:03.576Z,24.7
2018-09-26T11:36:04.971Z,24.5
2018-09-26T11:37:06.379Z,24.5
2018-09-26T11:38:07.824Z,24.4
2018-09-26T11:39:09.188Z,24.4
2018-09-26T11:40:10.707Z,24.4
2018-09-26T11:41:12.055Z,24.2
2018-09-26T11:42:13.460Z,24.3
2018-09-26T11:43:14.863Z,24.0
2018-09-26T11:44:16.344Z,23.9
2018-09-26T11:45:17.695Z,23.7
2018-09-26T11:46:19.158Z,23.6
2018-09-26T11:47:20.497Z,23.4
2018-09-26T11:48:21.904Z,23.4
2018-09-26T11:49:23.304Z,23.6
2018-09-26T11:50:24.715Z,23.7
2018-09-26T11:51:26.104Z,23.7
2018-09-26T11:52:27.507Z,23.8
2018-09-26T11:53:28.948Z,23.9
2018-09-26T11:54:30.416Z,23.8
2018-09-26T11:55:31.818Z,23.9
2018-09-26T11:56:33.247Z,23.9
2018-09-26T11:57:34.659Z,24.0
2018-09-26T11:58:36.347Z,23.9
2018-09-26T11:59:37.732Z,23.8
2018-09-26T12:00:39.140Z,23.8
2018-09-26T12:01:40.544Z,23.9
2018-09-26T12:02:41.980Z,24.0
2018-09-26T12:03:43.400Z,24.1
2018-09-26T12:04:44.807Z,24.2
2018-09-26T12:05:46.209Z,24.3
2018-09-26T12:06:47.649Z,24.3
2018-09-26T12:07:49.047Z,24.2
2018-09-26T12:08:50.457Z,24.3
2018-09-26T12:09:51.851Z,24.3
2018-09-26T12:10:53.257Z,24.5
2018-09-26T12:11:54.694Z,24.1
2018-09-26T12:12:56.093Z,24.0
2018-09-26T12:13:57.643Z,24.1
2018-09-26T12:14:59.011Z,24.3
2018-09-26T12:16:00.419Z,24.5
2018-09-26T12:17:01.817Z,24.6
2018-09-26T12:18:03.220Z,24.7
2018-09-26T12:19:04.638Z,24.6
2018-09-26T12:20:06.018Z,24.7
2018-09-26T12:21:07.422Z,24.5
2018-09-26T12:22:08.925Z,24.6
2018-09-26T12:23:10.228Z,24.8
2018-09-26T12:24:11.696Z,24.7
2018-09-26T12:25:13.097Z,24.7
2018-09-26T12:26:14.438Z,24.7
2018-09-26T12:27:15.841Z,24.9
2018-09-26T12:28:17.330Z,24.9
2018-09-26T12:29:19.557Z,24.9
2018-09-26T12:30:21.032Z,24.7
2018-09-26T12:31:22.369Z,24.8
2018-09-26T12:32:23.768Z,24.9
2018-09-26T12:33:25.176Z,25.1
2018-09-26T12:34:26.605Z,25.0
2018-09-26T12:35:27.983Z,25.1
2018-09-26T12:36:29.384Z,25.3
2018-09-26T12:37:30.801Z,25.4
2018-09-26T12:38:32.201Z,25.6
2018-09-26T12:39:33.642Z,25.4
2018-09-26T12:40:35.030Z,25.1
2018-09-26T12:41:36.436Z,24.7
2018-09-26T12:42:37.853Z,24.7
2018-09-26T12:43:39.247Z,24.8
2018-09-26T12:44:40.654Z,24.9
2018-09-26T12:45:42.058Z,24.9
2018-09-26T12:46:43.618Z,25.0
2018-09-26T12:47:45.018Z,25.1
2018-09-26T12:48:46.428Z,24.8
2018-09-26T12:49:47.836Z,24.8
2018-09-26T12:50:49.242Z,24.8
2018-09-26T12:51:50.645Z,24.9
2018-09-26T12:52:52.051Z,25.1
2018-09-26T12:53:53.578Z,25.2
2018-09-26T12:54:54.873Z,25.3
2018-09-26T12:55:56.289Z,25.3
2018-09-26T12:56:57.725Z,25.3
2018-09-26T12:57:59.132Z,25.3
2018-09-26T12:59:00.533Z,25.4
2018-09-26T13:00:01.979Z,25.3
2018-09-26T13:01:03.380Z,25.4
2018-09-26T13:02:04.791Z,25.2
2018-09-26T13:03:06.185Z,25.3
2018-09-26T13:04:07.615Z,25.3
2018-09-26T13:05:09.016Z,25.3
2018-09-26T13:06:10.457Z,25.3
2018-09-26T13:07:11.905Z,25.3
2018-09-26T13:08:13.352Z,25.4
2018-09-26T13:09:14.724Z,25.3
2018-09-26T13:10:16.168Z,25.3
2018-09-26T13:11:17.515Z,25.3
2018-09-26T13:12:18.982Z,25.4
2018-09-26T13:13:20.322Z,25.5
2018-09-26T13:14:21.748Z,25.6
2018-09-26T13:15:23.167Z,25.7
2018-09-26T13:16:24.572Z,25.7
2018-09-26T13:17:26.019Z,25.7
2018-09-26T13:18:27.416Z,25.7
2018-09-26T13:19:28.822Z,25.7
2018-09-26T13:20:30.259Z,25.7
2018-09-26T13:21:31.662Z,25.7
2018-09-26T13:22:33.065Z,25.7
2018-09-26T13:23:34.509Z,25.6
2018-09-26T13:24:35.922Z,25.7
2018-09-26T13:25:37.338Z,25.7
2018-09-26T13:26:38.813Z,25.7
2018-09-26T13:27:40.165Z,25.7
2018-09-26T13:28:41.587Z,25.7
2018-09-26T13:29:42.991Z,25.8
2018-09-26T13:30:44.403Z,25.7
2018-09-26T13:31:45.801Z,25.8
2018-09-26T13:32:47.207Z,25.9
2018-09-26T13:33:48.616Z,25.8
2018-09-26T13:34:50.048Z,25.7
2018-09-26T13:35:51.451Z,25.6
2018-09-26T13:36:52.857Z,25.4
2018-09-26T13:37:54.257Z,25.6
2018-09-26T13:38:55.766Z,25.6
2018-09-26T13:39:57.192Z,25.7
2018-09-26T13:40:58.599Z,25.7
2018-09-26T13:42:00.005Z,25.9
2018-09-26T13:43:01.465Z,25.9
2018-09-26T13:44:02.850Z,26.0
2018-09-26T13:45:04.253Z,26.0
2018-09-26T13:46:05.747Z,26.0
2018-09-26T13:47:07.089Z,26.1
2018-09-26T13:48:08.520Z,26.1